createdAt,value
2023-08-14T00:01:37.200Z,101337.00
2023-08-14T00:04:03.896Z,101343.09
2023-08-14T00:06:30.291Z,101336.88
2023-08-14T00:08:56.645Z,101342.06
2023-08-14T00:11:23.010Z,101339.91
2023-08-14T00:13:50.519Z,101339.09
2023-08-14T00:16:17.384Z,101336.50
2023-08-14T00:18:43.800Z,101336.50
2023-08-14T00:21:10.171Z,101336.31
2023-08-14T00:23:36.520Z,101341.44
2023-08-14T00:26:02.899Z,101332.25
2023-08-14T00:28:29.272Z,101329.38
2023-08-14T00:30:55.640Z,101332.03
2023-08-14T00:33:22.060Z,101326.97
2023-08-14T00:35:48.385Z,101328.19
2023-08-14T00:38:14.737Z,101329.91
2023-08-14T00:40:41.082Z,101327.22
2023-08-14T00:43:07.501Z,101328.09
2023-08-14T00:45:45.155Z,101322.94
2023-08-14T00:48:12.471Z,101316.81
2023-08-14T00:50:39.066Z,101318.69
2023-08-14T00:53:05.568Z,101312.50
2023-08-14T00:55:32.198Z,101317.59
2023-08-14T00:57:59.042Z,101315.91
2023-08-14T01:00:27.425Z,101321.34
2023-08-14T01:02:54.137Z,101330.41
2023-08-14T01:05:20.733Z,101338.78
2023-08-14T01:07:47.072Z,101327.53
2023-08-14T01:10:13.523Z,101323.50
2023-08-14T01:12:47.050Z,101322.78
2023-08-14T01:15:17.258Z,101327.16
2023-08-14T01:17:49.420Z,101322.84
2023-08-14T01:20:17.658Z,101328.22
2023-08-14T01:23:02.852Z,101327.31
2023-08-14T01:25:31.691Z,101329.78
2023-08-14T01:27:59.318Z,101333.47
2023-08-14T01:30:25.859Z,101332.69
2023-08-14T01:32:52.657Z,101334.47
2023-08-14T01:35:21.025Z,101333.56
2023-08-14T01:37:55.635Z,101340.69
2023-08-14T01:40:40.833Z,101343.44
2023-08-14T01:43:17.508Z,101348.78
2023-08-14T01:45:43.858Z,101349.03
2023-08-14T01:48:11.028Z,101347.91
2023-08-14T01:50:37.799Z,101346.97
2023-08-14T01:53:04.384Z,101342.75
2023-08-14T01:55:30.866Z,101343.56
2023-08-14T01:57:57.248Z,101342.91
2023-08-14T02:00:23.683Z,101335.75
2023-08-14T02:02:50.386Z,101339.38
2023-08-14T02:05:16.831Z,101351.72
2023-08-14T02:07:43.810Z,101334.06
2023-08-14T02:10:10.304Z,101336.78
2023-08-14T02:12:36.682Z,101336.75
2023-08-14T02:15:03.436Z,101336.94
2023-08-14T02:17:29.921Z,101331.72
2023-08-14T02:19:56.367Z,101331.47
2023-08-14T02:22:22.730Z,101331.53
2023-08-14T02:24:49.116Z,101325.19
2023-08-14T02:27:15.471Z,101327.88
2023-08-14T02:29:41.813Z,101330.59
2023-08-14T02:32:08.173Z,101328.03
2023-08-14T02:34:43.376Z,101324.47
2023-08-14T02:37:10.174Z,101327.31
2023-08-14T02:39:36.526Z,101328.13
2023-08-14T02:42:02.938Z,101324.53
2023-08-14T02:44:29.326Z,101326.53
2023-08-14T02:46:56.151Z,101329.16
2023-08-14T02:49:22.569Z,101327.44
2023-08-14T02:51:48.897Z,101329.16
2023-08-14T02:54:15.352Z,101324.91
2023-08-14T02:56:41.806Z,101323.94
2023-08-14T02:59:08.141Z,101324.03
2023-08-14T03:01:34.581Z,101320.63
2023-08-14T03:04:01.099Z,101318.84
2023-08-14T03:06:30.869Z,101317.06
2023-08-14T03:08:57.509Z,101316.19
2023-08-14T03:11:23.851Z,101318.69
2023-08-14T03:13:50.827Z,101315.16
2023-08-14T03:16:17.272Z,101315.28
2023-08-14T03:18:43.890Z,101317.91
2023-08-14T03:21:10.649Z,101310.00
2023-08-14T03:23:37.131Z,101310.94
2023-08-14T03:26:04.594Z,101302.41
2023-08-14T03:28:31.413Z,101306.59
2023-08-14T03:30:57.841Z,101306.59
2023-08-14T03:33:24.213Z,101304.81
2023-08-14T03:35:54.715Z,101305.03
2023-08-14T03:38:21.548Z,101304.88
2023-08-14T03:40:47.934Z,101296.13
2023-08-14T03:43:14.282Z,101296.03
2023-08-14T03:45:40.685Z,101294.41
2023-08-14T03:48:07.297Z,101283.03
2023-08-14T03:50:33.689Z,101292.69
2023-08-14T03:53:00.128Z,101288.28
2023-08-14T03:55:26.519Z,101298.75
2023-08-14T03:57:52.853Z,101299.56
2023-08-14T04:00:19.203Z,101292.47
2023-08-14T04:02:45.583Z,101291.53
2023-08-14T04:05:11.992Z,101294.28
2023-08-14T04:07:38.375Z,101293.31
2023-08-14T05:38:32.568Z,101311.22
2023-08-14T05:40:59.263Z,101302.34
2023-08-14T05:43:25.715Z,101305.78
2023-08-14T05:45:52.176Z,101312.63
2023-08-14T05:48:18.705Z,101318.69
2023-08-14T05:50:45.069Z,101316.13
2023-08-14T05:53:11.501Z,101325.81
2023-08-14T05:55:39.282Z,101314.69
2023-08-14T05:58:07.223Z,101313.81
2023-08-14T06:00:35.006Z,101315.22
2023-08-14T06:03:01.821Z,101307.38
2023-08-14T06:05:28.479Z,101294.78
2023-08-14T06:07:57.342Z,101305.28
2023-08-14T06:10:24.054Z,101309.84
2023-08-14T06:12:51.107Z,101306.03
2023-08-14T06:15:19.802Z,101306.50
2023-08-14T06:17:46.534Z,101303.75
2023-08-14T06:20:12.885Z,101299.16
2023-08-14T06:22:44.853Z,101313.38
2023-08-14T06:25:12.926Z,101308.34
2023-08-14T06:27:39.755Z,101321.50
2023-08-14T06:30:09.618Z,101319.41
2023-08-14T06:32:45.510Z,101311.44
2023-08-14T06:35:12.068Z,101316.75
2023-08-14T06:37:42.936Z,101323.38
2023-08-14T06:40:10.184Z,101317.94
2023-08-14T06:42:48.331Z,101320.94
2023-08-14T06:45:19.668Z,101316.25
2023-08-14T06:47:46.374Z,101326.25
2023-08-14T06:50:14.220Z,101328.06
2023-08-14T06:52:46.015Z,101327.19
2023-08-14T06:55:12.486Z,101326.63
2023-08-14T06:57:41.309Z,101322.91
2023-08-14T07:00:15.544Z,101322.53
2023-08-14T07:02:47.942Z,101326.13
2023-08-14T07:05:17.936Z,101329.44
2023-08-14T07:10:48.453Z,101331.47
2023-08-14T07:13:15.005Z,101319.78
2023-08-14T07:15:48.921Z,101318.78
2023-08-14T07:18:20.924Z,101323.09
2023-08-14T07:20:51.072Z,101327.41
2023-08-14T07:23:22.244Z,101325.59
2023-08-14T07:25:54.170Z,101323.97
2023-08-14T07:28:31.693Z,101324.31
2023-08-14T07:31:00.908Z,101322.34
2023-08-14T07:33:27.386Z,101320.50
2023-08-14T07:35:56.216Z,101327.03
2023-08-14T07:38:28.257Z,101321.97
2023-08-14T07:40:59.742Z,101324.09
2023-08-14T07:43:26.644Z,101314.72
2023-08-14T07:45:55.695Z,101321.09
2023-08-14T07:48:22.238Z,101324.25
2023-08-14T07:50:58.032Z,101321.66
2023-08-14T07:53:24.635Z,101312.94
2023-08-14T07:55:57.204Z,101314.81
2023-08-14T07:58:36.552Z,101314.88
2023-08-14T08:01:03.216Z,101316.34
2023-08-14T08:03:35.695Z,101306.28
2023-08-14T08:06:06.933Z,101300.50
2023-08-14T08:08:33.971Z,101305.22
2023-08-14T08:11:29.988Z,101310.84
2023-08-14T08:14:13.629Z,101302.97
2023-08-14T08:16:43.539Z,101313.94
2023-08-14T08:19:15.725Z,101303.13
2023-08-14T08:21:45.444Z,101303.06
2023-08-14T08:24:17.459Z,101307.31
2023-08-14T08:26:54.786Z,101314.38
2023-08-14T08:29:30.020Z,101302.94
2023-08-14T08:31:59.850Z,101293.63
2023-08-14T08:34:34.959Z,101294.91
2023-08-14T08:37:06.889Z,101300.63
2023-08-14T08:42:22.003Z,101297.19
2023-08-14T08:48:23.954Z,101297.47
2023-08-14T08:51:19.877Z,101299.44
2023-08-14T08:54:07.735Z,101301.22
2023-08-14T08:56:47.077Z,101305.94
2023-08-14T08:59:24.650Z,101300.97
2023-08-14T09:02:19.790Z,101305.22
2023-08-14T09:05:00.942Z,101292.69
2023-08-14T09:07:54.917Z,101297.34
2023-08-14T09:10:24.926Z,101296.00
2023-08-14T09:12:59.523Z,101289.72
2023-08-14T09:18:11.107Z,101289.03
2023-08-14T09:20:40.241Z,101290.50
2023-08-14T09:23:47.286Z,101297.25
2023-08-14T09:26:33.533Z,101285.19
2023-08-14T09:29:00.522Z,101300.91
2023-08-14T09:31:32.309Z,101300.00
2023-08-14T09:34:40.253Z,101294.09
2023-08-14T09:40:20.040Z,101295.47
2023-08-14T09:42:53.790Z,101296.38
2023-08-14T09:45:45.406Z,101297.66
2023-08-14T09:48:15.304Z,101289.09
2023-08-14T09:50:59.634Z,101293.81
2023-08-14T09:53:31.927Z,101289.78
2023-08-14T09:56:17.219Z,101290.28
2023-08-14T09:58:44.025Z,101293.97
2023-08-14T10:01:18.126Z,101290.25
2023-08-14T10:03:58.301Z,101294.47
2023-08-14T10:06:28.686Z,101296.25
2023-08-14T10:09:03.666Z,101298.72
2023-08-14T10:11:38.115Z,101287.66
2023-08-14T10:14:10.799Z,101285.88
2023-08-14T10:16:39.795Z,101290.13
2023-08-14T10:19:10.714Z,101286.47
2023-08-14T10:21:39.206Z,101282.94
2023-08-14T10:24:06.180Z,101279.38
2023-08-14T10:26:34.168Z,101273.41
2023-08-14T10:29:01.198Z,101272.91
2023-08-14T10:31:28.364Z,101268.50
2023-08-14T10:34:01.141Z,101269.25
2023-08-14T10:36:29.069Z,101254.31
2023-08-14T10:39:03.147Z,101258.97
2023-08-14T10:41:33.675Z,101266.28
2023-08-14T10:44:08.223Z,101256.03
2023-08-14T10:46:53.116Z,101261.03
2023-08-14T10:49:22.052Z,101259.53
2023-08-14T10:51:49.131Z,101250.38
2023-08-14T10:54:40.631Z,101250.00
2023-08-14T10:57:49.942Z,101259.13
2023-08-14T11:00:48.733Z,101243.41
2023-08-14T11:03:26.066Z,101246.31
2023-08-14T11:05:55.366Z,101245.91
2023-08-14T11:08:26.182Z,101248.78
2023-08-14T11:16:04.280Z,101257.06
2023-08-14T11:18:30.852Z,101253.69
2023-08-14T11:21:10.545Z,101251.53
2023-08-14T11:23:47.897Z,101261.94
2023-08-14T11:26:17.581Z,101262.22
2023-08-14T11:28:49.636Z,101254.97
2023-08-14T11:31:21.567Z,101265.69
2023-08-14T11:33:54.365Z,101267.78
2023-08-14T11:54:21.170Z,101282.81
2023-08-14T11:57:02.249Z,101272.31
2023-08-14T11:59:44.847Z,101254.88
2023-08-14T12:02:35.351Z,101250.44
2023-08-14T12:05:30.400Z,101251.16
2023-08-14T12:08:11.538Z,101254.97
2023-08-14T12:11:35.497Z,101255.09
2023-08-14T12:14:26.984Z,101257.34
2023-08-14T12:17:36.483Z,101256.41
2023-08-14T12:20:11.648Z,101245.56
2023-08-14T12:22:55.441Z,101235.59
2023-08-14T12:25:28.895Z,101248.84
2023-08-14T12:27:55.241Z,101237.28
2023-08-14T12:30:21.605Z,101242.63
2023-08-14T12:32:48.644Z,101233.97
2023-08-14T12:35:16.329Z,101238.78
2023-08-14T12:37:42.728Z,101229.84
2023-08-14T12:40:10.298Z,101226.16
2023-08-14T12:42:37.713Z,101227.19
2023-08-14T12:45:05.418Z,101224.28
2023-08-14T12:47:32.607Z,101224.53
2023-08-14T12:49:59.177Z,101221.22
2023-08-14T12:52:27.470Z,101217.72
2023-08-14T12:57:34.508Z,101213.25
2023-08-14T13:00:00.978Z,101212.34
2023-08-14T13:04:57.795Z,101213.88
2023-08-14T13:07:30.553Z,101212.09
2023-08-14T13:09:57.348Z,101207.63
2023-08-14T13:12:23.914Z,101209.91
2023-08-14T13:14:50.447Z,101204.91
2023-08-14T13:17:17.421Z,101210.91
2023-08-14T13:19:44.073Z,101202.03
2023-08-14T13:22:10.525Z,101198.53
2023-08-14T13:24:36.922Z,101193.69
2023-08-14T13:29:34.886Z,101190.47
2023-08-14T13:32:02.127Z,101197.53
2023-08-14T13:34:28.567Z,101195.94
2023-08-14T13:36:54.938Z,101200.31
2023-08-14T13:39:21.349Z,101210.88
2023-08-14T13:41:47.715Z,101202.16
2023-08-14T13:44:14.217Z,101193.56
2023-08-14T13:46:42.027Z,101186.88
2023-08-14T13:49:10.794Z,101186.97
2023-08-14T13:51:37.172Z,101187.91
2023-08-14T13:54:04.490Z,101187.94
2023-08-14T13:56:30.969Z,101187.50
2023-08-14T13:58:59.167Z,101188.88
2023-08-14T14:01:26.592Z,101191.16
2023-08-14T14:03:54.308Z,101185.47
2023-08-14T14:06:20.661Z,101178.59
2023-08-14T14:08:48.041Z,101168.25
2023-08-14T14:11:14.472Z,101171.16
2023-08-14T14:13:40.908Z,101167.56
2023-08-14T14:16:07.415Z,101172.78
2023-08-14T14:18:33.816Z,101167.09
2023-08-14T14:21:00.167Z,101159.81
2023-08-14T14:23:26.507Z,101163.31
2023-08-14T14:25:52.850Z,101170.84
2023-08-14T14:28:19.224Z,101170.25
2023-08-14T14:30:45.617Z,101169.19
2023-08-14T14:33:12.063Z,101170.31
2023-08-14T14:35:38.448Z,101160.34
2023-08-14T14:38:04.899Z,101170.16
2023-08-14T14:40:32.331Z,101171.91
2023-08-14T14:42:58.973Z,101163.38
2023-08-14T14:45:34.862Z,101167.00
2023-08-14T14:48:02.454Z,101160.97
2023-08-14T14:50:30.285Z,101167.25
2023-08-14T14:52:57.681Z,101161.03
2023-08-14T14:55:24.213Z,101166.78
2023-08-14T14:57:50.627Z,101154.97
2023-08-14T15:00:17.440Z,101165.00
2023-08-14T15:02:43.936Z,101163.91
2023-08-14T15:05:18.058Z,101159.56
2023-08-14T15:07:53.888Z,101155.28
2023-08-14T15:10:20.344Z,101154.44
2023-08-14T15:12:46.739Z,101157.72
2023-08-14T15:15:13.190Z,101158.84
2023-08-14T15:17:44.438Z,101159.16
2023-08-14T15:20:13.184Z,101163.44
2023-08-14T15:22:39.856Z,101152.13
2023-08-14T15:25:08.677Z,101149.63
2023-08-14T15:27:35.162Z,101153.75
2023-08-14T15:30:01.613Z,101147.44
2023-08-14T15:32:28.026Z,101148.19
2023-08-14T15:34:54.401Z,101148.03
2023-08-14T15:37:21.073Z,101146.84
2023-08-14T15:39:49.686Z,101151.59
2023-08-14T15:42:17.248Z,101149.06
2023-08-14T15:44:43.693Z,101131.84
2023-08-14T15:47:10.067Z,101131.59
2023-08-14T15:49:36.456Z,101123.75
2023-08-14T15:52:03.883Z,101120.50
2023-08-14T15:54:43.153Z,101117.22
2023-08-14T15:57:16.867Z,101124.59
2023-08-14T15:59:43.473Z,101119.41
2023-08-14T16:02:10.606Z,101109.22
2023-08-14T16:04:37.686Z,101113.50
2023-08-14T16:07:04.109Z,101106.59
2023-08-14T16:09:30.527Z,101111.66
2023-08-14T16:11:57.728Z,101106.38
2023-08-14T16:14:26.324Z,101099.91
2023-08-14T16:16:55.912Z,101109.00
2023-08-14T16:19:22.392Z,101110.38
2023-08-14T16:21:48.818Z,101112.78
2023-08-14T16:24:15.213Z,101112.69
2023-08-14T16:26:41.791Z,101111.06
2023-08-14T16:29:09.010Z,101110.16
2023-08-14T16:31:35.601Z,101106.31
2023-08-14T16:34:01.970Z,101110.09
2023-08-14T16:36:28.421Z,101100.97
2023-08-14T16:38:54.813Z,101105.28
2023-08-14T16:41:21.216Z,101098.66
2023-08-14T16:43:47.564Z,101102.69
2023-08-14T16:46:13.963Z,101093.41
2023-08-14T16:48:40.412Z,101100.09
2023-08-14T16:51:07.859Z,101095.44
2023-08-14T16:53:34.240Z,101101.88
2023-08-14T16:56:00.607Z,101103.47
2023-08-14T16:58:26.957Z,101103.44
2023-08-14T17:00:54.133Z,101097.09
2023-08-14T17:03:20.627Z,101107.03
2023-08-14T17:05:47.097Z,101100.88
2023-08-14T17:08:13.481Z,101100.66
2023-08-14T17:10:39.939Z,101102.25
2023-08-14T17:13:09.070Z,101103.38
2023-08-14T17:15:40.245Z,101090.22
2023-08-14T17:18:06.877Z,101087.59
2023-08-14T17:20:33.560Z,101090.81
2023-08-14T17:23:00.108Z,101091.91
2023-08-14T17:25:26.448Z,101097.28
2023-08-14T17:27:52.862Z,101093.78
2023-08-14T17:30:19.368Z,101099.91
2023-08-14T17:32:45.991Z,101098.09
2023-08-14T17:35:12.741Z,101098.50
2023-08-14T17:37:39.236Z,101087.09
2023-08-14T17:40:06.511Z,101093.63
2023-08-14T17:42:38.772Z,101095.50
2023-08-14T17:45:06.370Z,101090.44
2023-08-14T17:47:37.291Z,101095.94
2023-08-14T17:50:04.814Z,101090.69
2023-08-14T17:52:31.284Z,101095.22
2023-08-14T17:54:57.732Z,101095.38
2023-08-14T17:57:24.174Z,101096.34
2023-08-14T17:59:50.645Z,101087.50
2023-08-14T18:02:17.085Z,101092.19
2023-08-14T18:04:43.568Z,101083.66
2023-08-14T18:07:09.961Z,101085.53
2023-08-14T18:09:36.537Z,101089.44
2023-08-14T18:12:02.979Z,101099.91
2023-08-14T18:14:29.460Z,101097.41
2023-08-14T18:16:55.875Z,101090.78
2023-08-14T18:19:29.529Z,101099.31
2023-08-14T18:21:56.913Z,101098.31
2023-08-14T18:24:23.332Z,101102.47
2023-08-14T18:26:49.712Z,101100.31
2023-08-14T18:29:17.865Z,101097.41
2023-08-14T18:31:44.306Z,101099.31
2023-08-14T18:34:10.780Z,101105.63
2023-08-14T18:36:37.381Z,101108.22
2023-08-14T18:39:04.481Z,101107.66
2023-08-14T18:41:31.013Z,101114.69
2023-08-14T18:43:57.387Z,101104.53
2023-08-14T18:46:24.050Z,101105.47
2023-08-14T18:48:50.565Z,101106.09
2023-08-14T18:51:16.953Z,101115.69
2023-08-14T18:53:43.762Z,101115.16
2023-08-14T18:56:10.155Z,101108.63
2023-08-14T18:58:36.582Z,101113.03
2023-08-14T19:01:02.967Z,101116.81
2023-08-14T19:03:29.925Z,101116.34
2023-08-14T19:05:58.125Z,101114.63
2023-08-14T19:08:25.162Z,101116.44
2023-08-14T19:10:52.156Z,101103.59
2023-08-14T19:13:18.533Z,101111.81
2023-08-14T19:15:49.299Z,101111.97
2023-08-14T19:18:16.762Z,101115.44
2023-08-14T19:20:44.672Z,101121.28
2023-08-14T19:23:11.771Z,101122.56
2023-08-14T19:25:38.640Z,101117.50
2023-08-14T19:28:19.657Z,101124.00
2023-08-14T19:30:47.733Z,101128.47
2023-08-14T19:33:14.454Z,101137.00
2023-08-14T19:35:40.847Z,101126.22
2023-08-14T19:38:07.210Z,101130.88
2023-08-14T19:40:36.981Z,101126.69
2023-08-14T19:43:03.552Z,101125.56
2023-08-14T19:45:30.197Z,101123.75
2023-08-14T19:47:56.662Z,101127.78
2023-08-14T19:50:23.097Z,101132.19
2023-08-14T19:52:49.562Z,101121.66
2023-08-14T19:55:16.002Z,101116.84
2023-08-14T19:57:42.363Z,101117.63
2023-08-14T20:00:10.849Z,101119.00
2023-08-14T20:02:37.285Z,101116.94
2023-08-14T20:05:05.792Z,101118.47
2023-08-14T20:07:32.574Z,101114.03
2023-08-14T20:09:59.682Z,101107.91
2023-08-14T20:12:26.101Z,101105.75
2023-08-14T20:14:52.796Z,101112.28
2023-08-14T20:17:20.501Z,101105.06
2023-08-14T20:19:46.975Z,101106.56
2023-08-14T20:22:13.333Z,101111.19
2023-08-14T20:24:39.738Z,101108.63
2023-08-14T20:27:08.467Z,101112.84
2023-08-14T20:29:34.874Z,101115.78
2023-08-14T20:32:01.307Z,101113.94
2023-08-14T20:34:28.188Z,101108.53
2023-08-14T20:36:54.716Z,101102.50
2023-08-14T20:39:23.342Z,101110.88
2023-08-14T20:41:49.841Z,101102.97
2023-08-14T20:44:16.217Z,101113.81
2023-08-14T20:46:42.649Z,101108.09
2023-08-14T20:49:09.078Z,101119.91
2023-08-14T20:51:35.585Z,101113.47
2023-08-14T20:54:02.081Z,101102.81
2023-08-14T20:56:28.456Z,101102.66
2023-08-14T20:58:54.882Z,101098.50
2023-08-14T21:01:21.721Z,101103.09
2023-08-14T21:03:48.632Z,101098.00
2023-08-14T21:06:17.228Z,101098.13
2023-08-14T21:08:45.058Z,101101.34
2023-08-14T21:11:15.086Z,101101.72
2023-08-14T21:13:42.412Z,101098.38
2023-08-14T21:16:09.325Z,101092.59
2023-08-14T21:18:35.699Z,101096.31
2023-08-14T21:21:02.049Z,101094.91
2023-08-14T21:23:28.428Z,101094.91
2023-08-14T21:25:56.072Z,101095.63
2023-08-14T21:28:22.453Z,101092.59
2023-08-14T21:30:57.574Z,101089.19
2023-08-14T21:33:23.958Z,101092.25
2023-08-14T21:35:51.038Z,101085.34
2023-08-14T21:38:17.506Z,101072.81
2023-08-14T21:40:43.927Z,101076.66
2023-08-14T21:43:10.361Z,101077.97
2023-08-14T21:45:37.184Z,101083.53
2023-08-14T21:48:03.883Z,101088.34
2023-08-14T21:50:30.288Z,101090.66
2023-08-14T21:52:56.630Z,101080.94
2023-08-14T21:55:22.976Z,101082.16
2023-08-14T21:57:49.318Z,101082.75
2023-08-14T22:00:15.656Z,101077.56
2023-08-14T22:02:42.029Z,101075.75
2023-08-14T22:05:08.530Z,101085.34
2023-08-14T22:07:34.914Z,101087.31
2023-08-14T22:10:01.388Z,101082.72
2023-08-14T22:12:27.756Z,101091.97
2023-08-14T22:14:54.138Z,101085.06
2023-08-14T22:17:20.716Z,101079.31
2023-08-14T22:19:47.268Z,101083.03
2023-08-14T22:22:13.609Z,101080.50
2023-08-14T22:24:41.573Z,101092.00
2023-08-14T22:27:08.735Z,101086.59
2023-08-14T22:29:35.113Z,101092.81
2023-08-14T22:32:01.527Z,101092.94
2023-08-14T22:34:27.914Z,101090.16
2023-08-14T22:36:54.288Z,101086.50
2023-08-14T22:39:20.680Z,101083.22
2023-08-14T22:41:47.039Z,101077.63
2023-08-14T22:44:13.383Z,101085.31
2023-08-14T22:46:39.745Z,101083.72
2023-08-14T22:49:06.103Z,101082.56
2023-08-14T22:51:32.439Z,101081.31
2023-08-14T22:53:58.866Z,101087.09
2023-08-14T22:56:25.208Z,101079.31
2023-08-14T22:58:51.621Z,101087.53
2023-08-14T23:01:18.026Z,101085.06
2023-08-14T23:03:44.453Z,101085.72
2023-08-14T23:06:10.852Z,101068.88
2023-08-14T23:08:37.266Z,101070.31
2023-08-14T23:11:03.676Z,101074.03
2023-08-14T23:13:30.109Z,101075.56
2023-08-14T23:15:56.512Z,101073.78
2023-08-14T23:18:22.925Z,101063.50
2023-08-14T23:20:49.275Z,101063.66
2023-08-14T23:23:15.657Z,101059.75
2023-08-14T23:25:42.037Z,101062.28
2023-08-14T23:28:08.454Z,101053.06
2023-08-14T23:30:38.546Z,101057.28
2023-08-14T23:33:05.387Z,101064.91
2023-08-14T23:35:31.785Z,101063.38
2023-08-14T23:37:58.301Z,101057.19
2023-08-14T23:40:24.685Z,101064.41
2023-08-14T23:42:51.024Z,101057.75
2023-08-14T23:45:17.510Z,101052.63
2023-08-14T23:47:43.874Z,101054.03
2023-08-14T23:50:10.356Z,101047.16
2023-08-14T23:52:36.727Z,101046.56
2023-08-14T23:55:03.235Z,101045.38
2023-08-14T23:57:29.601Z,101051.53
2023-08-14T23:59:55.954Z,101050.84
